All
Wudinna Airport (Wudinna, South Australia) WUD Weather
|
Wudinna, South Australia (YWUD)
Clear skies
Windy |
|
50 °F |
There is no TAF data available at WUD or any nearby airports.
Recent WUD METAR history
| Date | Time (ACST) | Flight Rules | Wind Dir. | Speed | Type | Height AGL (ft) | Visibility | Temp (°C) | Temp (°F) | Dew Point (°C) | Dew Point (°F) | Rel. Humid. | Pressure | Density Altitude | Remarks |
|---|---|---|---|---|---|---|---|---|---|---|---|---|---|---|---|
| 03-May | 07:30AM | n/a | 340° | 15 kt | Missing | 10° | 50° | 8° | 46° | 87% | 1013 mb | -284 ft | |||
| 03-May | 06:30AM | n/a | 350° | 13 kt | Missing | 10° | 50° | 8° | 46° | 87% | 1013 mb | -284 ft | |||
| 03-May | 05:30AM | n/a | 340° | 13 kt | Missing | 10° | 50° | 8° | 46° | 87% | 1013 mb | -284 ft | |||
| 03-May | 04:30AM | n/a | 340° | 13 kt | Missing | 11° | 51° | 8° | 46° | 82% | 1012 mb | -134 ft | |||
| 03-May | 03:30AM | n/a | 340° | 12 kt | Missing | 11° | 51° | 9° | 48° | 87% | 1012 mb | -134 ft | |||
| 03-May | 02:30AM | n/a | 350° | 13 kt | Missing | 11° | 51° | 9° | 48° | 87% | 1013 mb | -164 ft | |||
| 03-May | 01:30AM | n/a | 340° | 10 kt | Missing | 11° | 51° | 8° | 46° | 82% | 1013 mb | -164 ft | |||
| 03-May | 12:30AM | n/a | 320° | 12 kt | Missing | 12° | 53° | 10° | 50° | 88% | 1013 mb | -44 ft | |||
| 02-May | 11:30PM | n/a | 320° | 13 kt | Missing | 12° | 53° | 10° | 50° | 88% | 1013 mb | -44 ft | |||
| 02-May | 10:30PM | n/a | 330° | 11 kt | Missing | 13° | 55° | 10° | 50° | 82% | 1013 mb | 76 ft | |||
| 02-May | 09:30PM | n/a | 330° | 15 kt | Missing | 13° | 55° | 8° | 46° | 72% | 1013 mb | 76 ft | |||
| 02-May | 08:30PM | n/a | 320° | 12 kt | Missing | 14° | 57° | 9° | 48° | 72% | 1012 mb | 226 ft | |||
| 02-May | 07:30PM | n/a | 320° | 12 kt | Missing | 14° | 57° | 9° | 48° | 72% | 1012 mb | 226 ft | |||
| 02-May | 06:30PM | n/a | 310° | 14 kt | Missing | 15° | 59° | 9° | 48° | 67% | 1012 mb | 346 ft | |||
| 02-May | 05:30PM | n/a | 310° | 16 kt | Missing | 16° | 60° | 8° | 46° | 59% | 1011 mb | 495 ft | |||
| 02-May | 04:30PM | n/a | 310° | 18 kt | Missing | 16° | 60° | 8° | 46° | 59% | 1011 mb | 495 ft | |||
| 02-May | 03:30PM | n/a | 310° | 19 kt | Missing | 17° | 62° | 7° | 44° | 52% | 1010 mb | 645 ft | |||
| 02-May | 02:30PM | n/a | 310° | 20 kt | Missing | 19° | 66° | 3° | 37° | 34% | 1010 mb | 885 ft | |||
| 02-May | 01:30PM | n/a | 320° | 21 kt | Missing | 19° | 66° | 6° | 42° | 43% | 1010 mb | 885 ft | |||
| 02-May | 12:30PM | n/a | 320° | 22 kt | Missing | 19° | 66° | 8° | 46° | 49% | 1010 mb | 885 ft | |||
| 02-May | 11:30AM | n/a | 320° | 18 kt | Missing | 18° | 64° | 12° | 53° | 68% | 1010 mb | 765 ft | |||
| 02-May | 10:30AM | n/a | 310° | 16 kt | Missing | 16° | 60° | 13° | 55° | 82% | 1011 mb | 495 ft | |||
| 02-May | 09:30AM | n/a | 310° | 12 kt | Missing | 15° | 59° | 13° | 55° | 88% | 1011 mb | 375 ft | |||
| 02-May | 08:30AM | n/a | 320° | 12 kt | Missing | 15° | 59° | 13° | 55° | 88% | 1010 mb | 405 ft |
Login
| Your browser is unsupported. upgrade your browser |
